Time;durP1;ratioP1;P1;durP2;ratioP2;P2;SDS_P1;SDS_P2;PMS_P1;PMS_P2;Temp;Humidity;BMP_temperature;BMP_pressure;BME280_temperature;BME280_humidity;BME280_pressure;Samples;Min_cycle;Max_cycle;Signal;HPM_P1;HPM_P2
2022/01/17 00:01:51;;;;;;;0.53;0.00;;;;;22.60;99930.00;;;;5086088;28;20418;-78
2022/01/17 00:04:21;;;;;;;0.00;0.00;;;;;22.60;99942.00;;;;5085635;28;20309;-78
2022/01/17 00:06:50;;;;;;;0.00;0.00;;;;;22.70;99987.00;;;;5086406;28;20085;-77
2022/01/17 00:09:22;;;;;;;0.63;0.35;;;;;22.60;100010.00;;;;5084889;28;20050;-78
2022/01/17 00:11:53;;;;;;;0.00;0.00;;;;;22.60;100054.00;;;;5084986;28;20851;-79
2022/01/17 00:14:28;;;;;;;0.15;0.08;;;;;22.60;100076.00;;;;5085743;28;20093;-77
2022/01/17 00:17:23;;;;;;;0.00;0.00;;;;;22.70;100097.00;;;;5083175;28;20503;-77
2022/01/17 00:19:55;;;;;;;0.00;0.00;;;;;22.70;100103.00;;;;5084476;28;20040;-77
2022/01/17 00:22:25;;;;;;;0.00;0.00;;;;;22.70;100148.00;;;;5084374;28;20529;-77
2022/01/17 00:24:54;;;;;;;2.20;0.80;;;;;22.60;100293.00;;;;5084025;28;20048;-77
2022/01/17 00:27:24;;;;;;;0.10;0.10;;;;;22.80;100364.00;;;;5083938;28;20039;-77
2022/01/17 00:29:54;;;;;;;0.00;0.00;;;;;23.00;100388.00;;;;5083588;28;20044;-77
2022/01/17 00:32:23;;;;;;;2.60;0.45;;;;;22.90;100364.00;;;;5083938;28;20461;-77
2022/01/17 00:34:53;;;;;;;0.00;0.00;;;;;22.90;100360.00;;;;5084652;28;20052;-77
2022/01/17 00:37:22;;;;;;;0.00;0.00;;;;;22.90;100366.00;;;;5085607;28;20040;-77
2022/01/17 00:39:51;;;;;;;0.00;0.00;;;;;22.90;100384.00;;;;5087121;28;20522;-76
2022/01/17 00:42:21;;;;;;;0.00;0.00;;;;;22.80;100396.00;;;;5085403;28;20048;-78
2022/01/17 00:44:51;;;;;;;0.00;0.00;;;;;22.50;100345.00;;;;5085820;28;20052;-81
2022/01/17 00:47:20;;;;;;;0.00;0.00;;;;;22.30;100303.00;;;;5086264;28;20040;-81
2022/01/17 00:49:50;;;;;;;0.00;0.00;;;;;22.20;100293.00;;;;5085130;28;20044;-82
2022/01/17 00:52:19;;;;;;;0.00;0.00;;;;;22.20;100305.00;;;;5085734;28;20518;-81
2022/01/17 00:54:49;;;;;;;0.00;0.00;;;;;22.10;100323.00;;;;5086313;28;20059;-80
2022/01/17 00:57:18;;;;;;;0.00;0.00;;;;;22.30;100338.00;;;;5084292;28;20048;-79
2022/01/17 00:59:48;;;;;;;0.00;0.00;;;;;22.50;100335.00;;;;5085174;28;20048;-79
2022/01/17 01:02:17;;;;;;;0.22;0.20;;;;;22.30;100303.00;;;;5085232;28;20054;-81
2022/01/17 01:04:47;;;;;;;0.35;0.25;;;;;22.40;100299.00;;;;5086072;28;20117;-80
2022/01/17 01:07:17;;;;;;;0.00;0.00;;;;;22.30;100305.00;;;;5089457;28;20419;-79
2022/01/17 01:09:59;;;;;;;0.20;0.10;;;;;22.40;100366.00;;;;5088544;28;20071;-81
2022/01/17 01:12:29;;;;;;;0.10;0.10;;;;;22.30;100317.00;;;;5088939;28;20054;-77
2022/01/17 01:14:59;;;;;;;0.20;0.20;;;;;22.40;100290.00;;;;5088680;28;20048;-82
2022/01/17 01:17:46;;;;;;;0.00;0.00;;;;;22.20;100272.00;;;;5088469;28;20044;-80
2022/01/17 01:20:46;;;;;;;0.00;0.00;;;;;22.20;100247.00;;;;5089117;28;20097;-82
2022/01/17 01:28:51;;;;;;;0.00;0.00;;;;;22.30;100228.00;;;;5089175;28;20040;-81
2022/01/17 01:31:31;;;;;;;0.00;0.00;;;;;22.40;100235.00;;;;5089115;28;20044;-80
2022/01/17 01:34:04;;;;;;;0.00;0.00;;;;;22.30;100222.00;;;;5088969;28;20039;-77
2022/01/17 01:36:35;;;;;;;0.00;0.00;;;;;22.20;100208.00;;;;5089675;28;20075;-80
2022/01/17 01:39:06;;;;;;;0.00;0.00;;;;;22.30;100187.00;;;;5089520;28;20672;-78
2022/01/17 01:41:42;;;;;;;0.00;0.00;;;;;22.30;100175.00;;;;5089146;28;20044;-79
2022/01/17 01:44:16;;;;;;;0.00;0.00;;;;;22.20;100158.00;;;;5086888;28;20058;-78
2022/01/17 01:46:47;;;;;;;0.00;0.00;;;;;22.40;100183.00;;;;5089145;28;20093;-79
2022/01/17 01:49:19;;;;;;;0.00;0.00;;;;;22.40;100192.00;;;;5089239;28;20121;-79
2022/01/17 01:51:49;;;;;;;0.00;0.00;;;;;22.40;100206.00;;;;5087081;28;20515;-78
2022/01/17 01:54:19;;;;;;;0.10;0.08;;;;;22.40;100204.00;;;;5088178;28;20114;-80
2022/01/17 01:56:50;;;;;;;0.00;0.00;;;;;22.50;100180.00;;;;5088389;28;20044;-79
2022/01/17 01:59:22;;;;;;;0.00;0.00;;;;;22.50;100192.00;;;;5088532;28;20130;-79
2022/01/17 02:01:52;;;;;;;0.00;0.00;;;;;22.50;100189.00;;;;5089249;28;20575;-78
2022/01/17 02:04:22;;;;;;;0.00;0.00;;;;;22.50;100172.00;;;;5089380;28;20093;-79
2022/01/17 02:06:52;;;;;;;0.10;0.00;;;;;22.70;100147.00;;;;5089788;28;20051;-82
2022/01/17 02:09:23;;;;;;;0.00;0.00;;;;;22.60;100108.00;;;;5088749;28;20040;-80
2022/01/17 02:11:54;;;;;;;0.00;0.00;;;;;22.70;100122.00;;;;5088448;28;20093;-79
2022/01/17 02:14:23;;;;;;;0.00;0.00;;;;;22.70;100169.00;;;;5088729;28;20040;-80
2022/01/17 02:16:53;;;;;;;0.10;0.00;;;;;22.80;100170.00;;;;5087484;28;20052;-78
2022/01/17 02:19:25;;;;;;;0.00;0.00;;;;;22.80;100196.00;;;;5088603;28;20055;-75
2022/01/17 02:21:55;;;;;;;0.20;0.20;;;;;22.90;100221.00;;;;5088419;28;20040;-79
2022/01/17 02:24:25;;;;;;;0.00;0.00;;;;;22.80;100169.00;;;;5086440;28;20048;-77
2022/01/17 02:26:55;;;;;;;1.03;0.37;;;;;22.70;100161.00;;;;5086409;28;20044;-78
2022/01/17 02:29:24;;;;;;;0.00;0.00;;;;;22.70;100191.00;;;;5088619;28;20563;-79
2022/01/17 02:31:54;;;;;;;0.25;0.10;;;;;22.70;100164.00;;;;5087895;28;20040;-78
2022/01/17 02:34:23;;;;;;;0.60;0.10;;;;;22.70;100125.00;;;;5087869;28;20040;-78
2022/01/17 02:36:53;;;;;;;0.17;0.17;;;;;22.60;100092.00;;;;5088452;28;20052;-78
2022/01/17 02:39:22;;;;;;;0.00;0.00;;;;;22.50;100069.00;;;;5087748;28;20067;-79
2022/01/17 02:41:52;;;;;;;0.00;0.00;;;;;22.50;100123.00;;;;5087935;28;20048;-76
2022/01/17 02:44:22;;;;;;;0.00;0.00;;;;;22.40;100109.00;;;;5086076;28;20093;-78
2022/01/17 02:46:52;;;;;;;0.00;0.00;;;;;22.30;100127.00;;;;5088073;28;20534;-77
2022/01/17 02:49:22;;;;;;;16.23;0.32;;;;;22.30;100119.00;;;;5087571;28;20044;-78
2022/01/17 02:51:51;;;;;;;0.00;0.00;;;;;22.30;100113.00;;;;5086657;28;20067;-76
2022/01/17 02:54:21;;;;;;;0.00;0.00;;;;;22.30;100105.00;;;;5087592;28;20040;-76
2022/01/17 02:56:50;;;;;;;0.40;0.20;;;;;22.30;100104.00;;;;5087935;28;20097;-75
2022/01/17 03:12:23;;;;;;;0.00;0.00;;;;;22.50;100117.00;;;;5124333;27;21017;-75
2022/01/17 03:14:53;;;;;;;0.00;0.00;;;;;22.50;100095.00;;;;5124997;27;20535;-75
2022/01/17 03:17:23;;;;;;;0.00;0.00;;;;;22.50;100092.00;;;;5124529;27;20054;-74
2022/01/17 03:19:52;;;;;;;0.00;0.00;;;;;22.50;100061.00;;;;5124110;27;20600;-75
2022/01/17 03:22:22;;;;;;;0.00;0.00;;;;;22.50;100068.00;;;;5124649;28;20044;-75
2022/01/17 03:24:51;;;;;;;0.00;0.00;;;;;22.60;100060.00;;;;5124154;27;20047;-75
2022/01/17 03:27:21;;;;;;;0.00;0.00;;;;;22.50;100096.00;;;;5124341;27;20050;-75
2022/01/17 03:29:50;;;;;;;0.00;0.00;;;;;22.70;100087.00;;;;5124844;27;20039;-74
2022/01/17 03:32:19;;;;;;;0.00;0.00;;;;;22.80;100092.00;;;;5123978;27;20043;-74
2022/01/17 03:34:50;;;;;;;0.00;0.00;;;;;22.70;100097.00;;;;5124397;27;20545;-76
2022/01/17 03:37:19;;;;;;;0.00;0.00;;;;;22.80;100089.00;;;;5122874;28;20048;-75
2022/01/17 03:39:49;;;;;;;3.10;0.85;;;;;22.80;100066.00;;;;5123738;27;20050;-75
2022/01/17 03:42:18;;;;;;;0.00;0.00;;;;;22.80;100039.00;;;;5123202;28;20057;-75
2022/01/17 03:44:48;;;;;;;0.00;0.00;;;;;22.80;100017.00;;;;5123814;27;20035;-75
2022/01/17 03:47:18;;;;;;;0.00;0.00;;;;;22.90;100013.00;;;;5124196;27;20043;-74
2022/01/17 03:49:47;;;;;;;0.00;0.00;;;;;22.80;99994.00;;;;5123458;27;20592;-75
2022/01/17 03:52:16;;;;;;;0.00;0.00;;;;;22.90;99992.00;;;;5122721;28;20047;-74
2022/01/17 03:54:51;;;;;;;0.00;0.00;;;;;22.90;99979.00;;;;5124040;27;21009;-74
2022/01/17 03:57:20;;;;;;;0.00;0.00;;;;;22.90;99966.00;;;;5121996;28;20069;-75
2022/01/17 03:59:50;;;;;;;0.00;0.00;;;;;23.00;99984.00;;;;5123248;27;20131;-73
2022/01/17 04:02:19;;;;;;;0.22;0.22;;;;;22.80;99980.00;;;;5103424;28;20046;-73
2022/01/17 04:04:49;;;;;;;0.00;0.00;;;;;22.90;99976.00;;;;5103139;28;20109;-74
2022/01/17 04:07:18;;;;;;;0.00;0.00;;;;;23.00;99975.00;;;;5102699;28;20039;-74
2022/01/17 04:09:48;;;;;;;0.00;0.00;;;;;22.70;99957.00;;;;5102572;28;20042;-74
2022/01/17 04:12:17;;;;;;;0.00;0.00;;;;;23.00;99967.00;;;;5095618;28;20048;-72
2022/01/17 04:14:47;;;;;;;0.00;0.00;;;;;23.00;99960.00;;;;5089415;28;20036;-74
2022/01/17 04:17:17;;;;;;;0.00;0.00;;;;;22.80;99971.00;;;;5088829;28;20040;-74
2022/01/17 04:19:51;;;;;;;0.00;0.00;;;;;22.60;99969.00;;;;5105053;28;20438;-73
2022/01/17 04:22:23;;;;;;;0.00;0.00;;;;;22.50;99963.00;;;;5088730;28;20143;-75
2022/01/17 04:24:53;;;;;;;0.00;0.00;;;;;22.50;99965.00;;;;5105142;28;20461;-75
2022/01/17 04:27:23;;;;;;;0.00;0.00;;;;;22.30;99961.00;;;;5088536;28;20391;-74
2022/01/17 04:29:52;;;;;;;0.00;0.00;;;;;22.20;99963.00;;;;5088501;28;20040;-74
2022/01/17 04:32:22;;;;;;;0.00;0.00;;;;;22.20;99956.00;;;;5089069;28;20055;-74
2022/01/17 04:34:52;;;;;;;0.00;0.00;;;;;22.40;99943.00;;;;5087108;28;20052;-73
2022/01/17 04:37:21;;;;;;;0.00;0.00;;;;;22.30;99929.00;;;;5088959;28;20036;-74
2022/01/17 04:39:51;;;;;;;0.00;0.00;;;;;22.20;99914.00;;;;5088042;28;20051;-74
2022/01/17 04:42:27;;;;;;;0.00;0.00;;;;;22.20;99923.00;;;;5089027;28;20082;-74
2022/01/17 04:45:11;;;;;;;0.00;0.00;;;;;22.30;99906.00;;;;5088366;28;20044;-75
2022/01/17 04:47:44;;;;;;;0.00;0.00;;;;;22.10;99907.00;;;;5088734;28;20047;-73
2022/01/17 04:50:17;;;;;;;0.08;0.08;;;;;22.20;99897.00;;;;5086733;28;20125;-72
2022/01/17 04:52:47;;;;;;;0.00;0.00;;;;;22.10;99902.00;;;;5088916;28;20141;-72
2022/01/17 04:55:19;;;;;;;0.00;0.00;;;;;22.20;99881.00;;;;5088287;28;20381;-73
2022/01/17 04:57:49;;;;;;;0.08;0.03;;;;;22.30;99863.00;;;;5087414;28;20127;-72
2022/01/17 05:00:21;;;;;;;0.00;0.00;;;;;22.40;99879.00;;;;5088305;28;20039;-73
2022/01/17 05:02:51;;;;;;;0.00;0.00;;;;;22.30;99854.00;;;;5088063;28;20044;-73
2022/01/17 05:05:21;;;;;;;0.00;0.00;;;;;22.20;99853.00;;;;5087846;28;20134;-74
2022/01/17 05:07:52;;;;;;;0.00;0.00;;;;;22.40;99846.00;;;;5087729;28;20044;-74
2022/01/17 05:10:23;;;;;;;0.00;0.00;;;;;22.30;99853.00;;;;5087311;28;20060;-73
2022/01/17 05:12:53;;;;;;;0.00;0.00;;;;;22.10;99862.00;;;;5088757;28;20040;-73
2022/01/17 05:15:31;;;;;;;0.00;0.00;;;;;22.10;99847.00;;;;5088041;28;20044;-73
2022/01/17 05:20:38;;;;;;;0.00;0.00;;;;;22.10;99837.00;;;;5087043;28;20048;-73
2022/01/17 05:23:09;;;;;;;0.00;0.00;;;;;22.10;99827.00;;;;5086950;28;20081;-74
2022/01/17 05:25:38;;;;;;;0.00;0.00;;;;;22.10;99818.00;;;;5087897;28;20036;-74
2022/01/17 05:28:08;;;;;;;0.03;0.03;;;;;22.20;99806.00;;;;5086533;28;20056;-73
2022/01/17 05:30:37;;;;;;;0.00;0.00;;;;;22.30;99809.00;;;;5086107;28;20044;-73
2022/01/17 05:33:07;;;;;;;0.00;0.00;;;;;22.50;99791.00;;;;5103553;28;20052;-73
2022/01/17 05:35:36;;;;;;;0.00;0.00;;;;;22.50;99799.00;;;;5086558;28;20047;-73
2022/01/17 05:38:09;;;;;;;0.00;0.00;;;;;22.70;99785.00;;;;5088594;28;20075;-73
2022/01/17 05:40:39;;;;;;;0.00;0.00;;;;;22.70;99774.00;;;;5087556;28;20052;-73
2022/01/17 05:43:09;;;;;;;0.00;0.00;;;;;22.70;99777.00;;;;5088380;28;20601;-74
2022/01/17 05:45:38;;;;;;;0.00;0.00;;;;;22.70;99771.00;;;;5087014;28;20040;-73
2022/01/17 05:48:08;;;;;;;0.00;0.00;;;;;22.60;99764.00;;;;5087321;28;20036;-74
2022/01/17 05:50:37;;;;;;;0.00;0.00;;;;;22.40;99774.00;;;;5087505;28;20047;-74
2022/01/17 05:53:06;;;;;;;0.00;0.00;;;;;22.30;99767.00;;;;5087486;28;20071;-74
2022/01/17 05:55:36;;;;;;;0.00;0.00;;;;;22.20;99772.00;;;;5087441;28;20040;-73
2022/01/17 05:58:05;;;;;;;0.00;0.00;;;;;22.10;99758.00;;;;5087238;28;20061;-73
2022/01/17 06:00:35;;;;;;;0.00;0.00;;;;;22.10;99763.00;;;;5087087;28;20095;-73
2022/01/17 06:03:05;;;;;;;0.00;0.00;;;;;22.10;99768.00;;;;5087599;28;20055;-75
2022/01/17 06:05:35;;;;;;;0.00;0.00;;;;;22.00;99738.00;;;;5087211;28;20083;-74
2022/01/17 06:08:05;;;;;;;0.00;0.00;;;;;21.90;99743.00;;;;5086882;28;20043;-73
2022/01/17 06:10:34;;;;;;;0.00;0.00;;;;;21.90;99743.00;;;;5087380;28;20399;-73
2022/01/17 06:13:03;;;;;;;0.00;0.00;;;;;21.80;99736.00;;;;5087310;28;20036;-73
2022/01/17 06:15:33;;;;;;;0.00;0.00;;;;;21.70;99747.00;;;;5086750;28;20056;-73
2022/01/17 06:18:03;;;;;;;0.00;0.00;;;;;21.70;99711.00;;;;5087556;28;20044;-73
2022/01/17 06:20:32;;;;;;;0.00;0.00;;;;;21.60;99730.00;;;;5086576;28;20047;-73
2022/01/17 06:23:02;;;;;;;0.00;0.00;;;;;21.70;99729.00;;;;5086928;28;20044;-74
2022/01/17 06:25:31;;;;;;;0.00;0.00;;;;;21.60;99723.00;;;;5086913;28;20036;-74
2022/01/17 06:28:00;;;;;;;0.25;0.00;;;;;21.60;99740.00;;;;5086858;28;20032;-74
2022/01/17 06:30:30;;;;;;;0.00;0.00;;;;;21.50;99740.00;;;;5087639;28;20520;-74
2022/01/17 06:32:59;;;;;;;0.00;0.00;;;;;21.50;99741.00;;;;5087216;28;20036;-74
2022/01/17 06:35:29;;;;;;;0.00;0.00;;;;;21.50;99742.00;;;;5086875;28;20048;-74
2022/01/17 06:37:59;;;;;;;0.00;0.00;;;;;21.50;99739.00;;;;5086427;28;20048;-74
2022/01/17 06:40:29;;;;;;;0.20;0.20;;;;;21.40;99735.00;;;;5085962;28;20050;-73
2022/01/17 06:42:58;;;;;;;0.00;0.00;;;;;21.40;99746.00;;;;5086127;28;20470;-74
2022/01/17 06:45:28;;;;;;;0.00;0.00;;;;;21.40;99753.00;;;;5084663;28;20055;-74
2022/01/17 06:47:58;;;;;;;0.00;0.00;;;;;21.40;99737.00;;;;5086049;28;20046;-73
2022/01/17 06:50:27;;;;;;;0.00;0.00;;;;;21.40;99747.00;;;;5085740;28;20040;-74
2022/01/17 06:52:57;;;;;;;0.00;0.00;;;;;21.40;99731.00;;;;5086218;28;20634;-73
2022/01/17 06:55:27;;;;;;;0.00;0.00;;;;;21.40;99756.00;;;;5084633;28;20056;-74
2022/01/17 06:57:56;;;;;;;0.03;0.03;;;;;21.40;99735.00;;;;5086565;28;20048;-74
2022/01/17 07:00:26;;;;;;;0.00;0.00;;;;;21.40;99725.00;;;;5086175;28;20081;-73
2022/01/17 07:02:56;;;;;;;0.00;0.00;;;;;21.40;99738.00;;;;5085955;28;20044;-74
2022/01/17 07:05:26;;;;;;;0.00;0.00;;;;;21.30;99729.00;;;;5085671;28;20036;-74
2022/01/17 07:07:56;;;;;;;0.00;0.00;;;;;21.30;99720.00;;;;5086053;28;20044;-74
2022/01/17 07:10:28;;;;;;;0.00;0.00;;;;;21.30;99731.00;;;;5085997;28;20048;-73
2022/01/17 07:12:58;;;;;;;0.00;0.00;;;;;21.30;99733.00;;;;5085861;28;20043;-73
2022/01/17 07:15:27;;;;;;;0.00;0.00;;;;;21.30;99723.00;;;;5085204;28;20048;-74
2022/01/17 07:17:57;;;;;;;0.00;0.00;;;;;21.30;99727.00;;;;5086554;28;20055;-73
2022/01/17 07:20:26;;;;;;;0.00;0.00;;;;;21.20;99726.00;;;;5086112;28;20417;-73
2022/01/17 07:22:56;;;;;;;0.00;0.00;;;;;21.20;99715.00;;;;5086232;28;20402;-72
2022/01/17 07:25:25;;;;;;;0.28;0.28;;;;;21.20;99702.00;;;;5086093;28;20059;-74
2022/01/17 07:27:56;;;;;;;0.00;0.00;;;;;21.20;99713.00;;;;5085426;28;20721;-73
2022/01/17 07:30:26;;;;;;;0.00;0.00;;;;;21.20;99727.00;;;;5086441;28;20127;-74
2022/01/17 07:32:55;;;;;;;0.00;0.00;;;;;21.30;99733.00;;;;5085117;28;20032;-72
2022/01/17 07:35:25;;;;;;;0.00;0.00;;;;;21.30;99730.00;;;;5086050;28;20061;-74
2022/01/17 07:37:54;;;;;;;0.00;0.00;;;;;21.20;99746.00;;;;5085355;28;20052;-74
2022/01/17 07:40:24;;;;;;;0.00;0.00;;;;;21.20;99748.00;;;;5084322;28;20578;-73
2022/01/17 07:42:54;;;;;;;0.00;0.00;;;;;21.20;99729.00;;;;5086341;28;20048;-74
2022/01/17 07:45:26;;;;;;;0.00;0.00;;;;;21.20;99731.00;;;;5086111;28;20044;-74
2022/01/17 07:48:08;;;;;;;0.10;0.10;;;;;21.20;99741.00;;;;5088472;28;20047;-73
2022/01/17 07:50:39;;;;;;;0.00;0.00;;;;;21.20;99751.00;;;;5090068;28;20071;-73
2022/01/17 07:53:10;;;;;;;;;;;;;21.20;99749.00;;;;5090407;28;20451;-74
2022/01/17 07:55:42;;;;;;;0.00;0.00;;;;;21.20;99744.00;;;;5089556;28;19924;-74
2022/01/17 07:58:12;;;;;;;0.00;0.00;;;;;21.10;99739.00;;;;5089336;28;20519;-73
2022/01/17 08:00:42;;;;;;;0.00;0.00;;;;;21.20;99751.00;;;;5088976;28;20044;-74
2022/01/17 08:03:11;;;;;;;0.00;0.00;;;;;21.10;99755.00;;;;5087531;28;20052;-74
2022/01/17 08:05:40;;;;;;;0.00;0.00;;;;;21.20;99746.00;;;;5088177;28;20047;-73
2022/01/17 08:08:10;;;;;;;0.00;0.00;;;;;21.20;99751.00;;;;5089462;28;20085;-73
2022/01/17 08:10:39;;;;;;;0.00;0.00;;;;;21.20;99760.00;;;;5088882;28;20044;-73
2022/01/17 08:13:10;;;;;;;0.00;0.00;;;;;21.20;99752.00;;;;5087721;28;20048;-73
2022/01/17 08:15:39;;;;;;;0.10;0.10;;;;;21.20;99769.00;;;;5089675;28;20040;-74
2022/01/17 08:18:10;;;;;;;0.00;0.00;;;;;21.20;99755.00;;;;5089633;28;20036;-74
2022/01/17 08:20:41;;;;;;;0.00;0.00;;;;;21.20;99770.00;;;;5089201;28;21104;-73
2022/01/17 08:23:11;;;;;;;0.00;0.00;;;;;21.30;99760.00;;;;5089383;28;20514;-73
2022/01/17 08:25:41;;;;;;;0.00;0.00;;;;;21.30;99759.00;;;;5089447;28;20051;-74
2022/01/17 08:28:10;;;;;;;0.00;0.00;;;;;21.30;99761.00;;;;5088690;28;20047;-73
2022/01/17 08:30:40;;;;;;;0.00;0.00;;;;;21.30;99771.00;;;;5089380;28;20040;-74
2022/01/17 08:33:29;;;;;;;0.00;0.00;;;;;21.20;99765.00;;;;5089161;28;20135;-74
2022/01/17 08:35:59;;;;;;;0.00;0.00;;;;;21.30;99774.00;;;;5094540;28;20036;-74
2022/01/17 08:38:49;;;;;;;0.00;0.00;;;;;21.30;99761.00;;;;5114765;28;20047;-74
2022/01/17 08:41:19;;;;;;;6.22;3.35;;;;;21.30;99752.00;;;;5115017;28;20025;-75
2022/01/17 08:43:49;;;;;;;0.00;0.00;;;;;21.30;99742.00;;;;5115142;28;20028;-74
2022/01/17 08:46:19;;;;;;;0.00;0.00;;;;;21.40;99755.00;;;;5122403;28;20020;-74
2022/01/17 08:48:49;;;;;;;0.00;0.00;;;;;21.40;99763.00;;;;5112100;28;20051;-75
2022/01/17 08:51:18;;;;;;;0.00;0.00;;;;;21.50;99770.00;;;;5111642;28;20032;-74
2022/01/17 08:53:47;;;;;;;0.00;0.00;;;;;21.50;99762.00;;;;5094919;28;20043;-74
2022/01/17 08:56:17;;;;;;;0.00;0.00;;;;;21.50;99757.00;;;;5088190;28;20413;-74
2022/01/17 08:58:46;;;;;;;0.00;0.00;;;;;21.60;99766.00;;;;5087874;28;20095;-74
2022/01/17 09:01:16;;;;;;;0.00;0.00;;;;;21.80;99753.00;;;;5089068;28;20043;-74
2022/01/17 09:03:47;;;;;;;0.00;0.00;;;;;21.90;99764.00;;;;5089203;28;20052;-74
2022/01/17 09:06:18;;;;;;;0.00;0.00;;;;;22.00;99772.00;;;;5089884;28;20048;-74
2022/01/17 09:08:47;;;;;;;0.00;0.00;;;;;22.00;99767.00;;;;5104502;28;20043;-75
2022/01/17 09:11:19;;;;;;;0.00;0.00;;;;;22.10;99766.00;;;;5108879;28;21102;-74
2022/01/17 09:13:50;;;;;;;0.00;0.00;;;;;22.30;99762.00;;;;5109687;28;20372;-74
2022/01/17 09:16:19;;;;;;;0.00;0.00;;;;;22.30;99759.00;;;;5109045;28;20050;-75
2022/01/17 09:18:49;;;;;;;0.00;0.00;;;;;22.40;99774.00;;;;5108372;28;20130;-75
2022/01/17 09:21:19;;;;;;;0.00;0.00;;;;;22.60;99772.00;;;;5108849;28;20036;-74
2022/01/17 09:23:50;;;;;;;0.00;0.00;;;;;22.60;99769.00;;;;5108228;28;20096;-75
2022/01/17 09:26:21;;;;;;;0.00;0.00;;;;;22.60;99760.00;;;;5108813;28;20050;-75
2022/01/17 09:28:52;;;;;;;0.00;0.00;;;;;22.60;99759.00;;;;5108594;28;20070;-75
2022/01/17 09:31:22;;;;;;;0.00;0.00;;;;;22.70;99763.00;;;;5100028;28;20028;-75
2022/01/17 09:33:52;;;;;;;0.00;0.00;;;;;22.80;99765.00;;;;5088032;28;20040;-75
2022/01/17 09:36:25;;;;;;;0.00;0.00;;;;;22.90;99772.00;;;;5088579;28;20036;-75
2022/01/17 09:38:55;;;;;;;0.00;0.00;;;;;23.00;99778.00;;;;5088904;28;20051;-75
2022/01/17 09:41:25;;;;;;;0.00;0.00;;;;;23.10;99764.00;;;;5087674;28;20449;-75
2022/01/17 09:43:55;;;;;;;0.00;0.00;;;;;23.50;99750.00;;;;5088006;28;20040;-74
2022/01/17 09:46:31;;;;;;;0.00;0.00;;;;;24.00;99758.00;;;;5087814;28;20510;-73
2022/01/17 09:49:12;;;;;;;0.00;0.00;;;;;24.90;99742.00;;;;5088143;28;20044;-75
2022/01/17 09:54:36;;;;;;;0.00;0.00;;;;;25.00;99749.00;;;;5086056;28;20043;-76
2022/01/17 09:57:08;;;;;;;0.00;0.00;;;;;25.50;99762.00;;;;5088089;28;20538;-75
2022/01/17 09:59:40;;;;;;;0.00;0.00;;;;;25.80;99721.00;;;;5087569;28;20047;-75
2022/01/17 10:02:13;;;;;;;0.00;0.00;;;;;25.80;99759.00;;;;5087972;28;20044;-74
2022/01/17 10:04:43;;;;;;;0.00;0.00;;;;;26.00;99733.00;;;;5088074;28;20036;-75
2022/01/17 10:07:12;;;;;;;0.00;0.00;;;;;28.50;99663.00;;;;5086959;28;20044;-75
2022/01/17 10:09:55;;;;;;;0.00;0.00;;;;;29.60;99694.00;;;;5087212;28;20048;-76
2022/01/17 10:12:25;;;;;;;0.00;0.00;;;;;29.40;99731.00;;;;5086560;28;20039;-76
2022/01/17 10:15:00;;;;;;;0.00;0.00;;;;;27.60;99788.00;;;;5087616;28;20044;-76
2022/01/17 10:17:48;;;;;;;0.00;0.00;;;;;26.30;99818.00;;;;5089712;28;20048;-74
2022/01/17 10:20:18;;;;;;;0.00;0.00;;;;;26.00;99825.00;;;;5087572;28;20403;-76
2022/01/17 10:23:29;;;;;;;0.00;0.00;;;;;25.90;99834.00;;;;5091638;28;20044;-75
2022/01/17 10:26:10;;;;;;;0.00;0.00;;;;;25.80;99842.00;;;;5087002;28;20072;-75
2022/01/17 10:34:53;;;;;;;0.00;0.00;;;;;26.10;99839.00;;;;5086754;28;20032;-76
2022/01/17 10:37:14;;;;;;;0.00;0.00;;;;;27.20;99818.00;;;;5098064;28;20533;-77
2022/01/17 10:39:54;;;;;;;0.00;0.00;;;;;31.30;99683.00;;;;5107185;28;20548;-75
2022/01/17 10:42:29;;;;;;;0.00;0.00;;;;;34.00;99669.00;;;;5103547;28;20047;-76
2022/01/17 10:45:36;;;;;;;0.00;0.00;;;;;35.50;99691.00;;;;5086936;28;20047;-77
2022/01/17 10:48:07;;;;;;;0.10;0.10;;;;;31.50;99808.00;;;;5074799;28;20056;-76
2022/01/17 10:50:39;;;;;;;0.00;0.00;;;;;30.50;99820.00;;;;5088574;28;20097;-76
2022/01/17 10:53:13;;;;;;;0.00;0.00;;;;;29.60;99862.00;;;;5096101;28;20471;-77
2022/01/17 10:55:50;;;;;;;0.00;0.00;;;;;28.90;99857.00;;;;5087862;28;20519;-76
2022/01/17 10:58:24;;;;;;;0.00;0.00;;;;;29.90;99844.00;;;;5083158;28;20047;-76
2022/01/17 11:01:03;;;;;;;0.00;0.00;;;;;30.20;99857.00;;;;5086672;28;20473;-74
2022/01/17 11:03:35;;;;;;;0.00;0.00;;;;;30.30;99844.00;;;;5086380;28;20044;-75
2022/01/17 11:06:09;;;;;;;0.00;0.00;;;;;31.10;99832.00;;;;5086076;28;20532;-76
2022/01/17 11:08:41;;;;;;;0.00;0.00;;;;;30.90;99860.00;;;;5085787;28;20127;-76
2022/01/17 11:11:11;;;;;;;0.00;0.00;;;;;31.10;99881.00;;;;5085962;28;20051;-76
2022/01/17 11:13:48;;;;;;;0.00;0.00;;;;;30.60;99859.00;;;;5085111;28;20139;-75
2022/01/17 11:16:21;;;;;;;0.00;0.00;;;;;30.60;99865.00;;;;5086659;28;20577;-74
2022/01/17 11:18:59;;;;;;;0.00;0.00;;;;;30.30;99887.00;;;;5095341;28;20067;-74
2022/01/17 11:21:29;;;;;;;0.00;0.00;;;;;29.80;99905.00;;;;5105554;28;20048;-74
2022/01/17 11:23:59;;;;;;;0.00;0.00;;;;;29.70;99889.00;;;;5110333;28;20843;-76
2022/01/17 11:26:29;;;;;;;0.00;0.00;;;;;29.60;99886.00;;;;5109723;28;20063;-75
2022/01/17 11:28:59;;;;;;;0.00;0.00;;;;;29.70;99884.00;;;;5110189;28;20620;-76
2022/01/17 11:31:28;;;;;;;0.00;0.00;;;;;30.40;99883.00;;;;5110752;28;20356;-76
2022/01/17 11:33:58;;;;;;;0.00;0.00;;;;;30.70;99886.00;;;;5110483;28;20048;-75
2022/01/17 11:36:28;;;;;;;0.00;0.00;;;;;30.50;99881.00;;;;5110645;28;20568;-75
2022/01/17 11:39:00;;;;;;;0.00;0.00;;;;;31.10;99875.00;;;;5110584;28;20047;-73
2022/01/17 11:41:34;;;;;;;0.00;0.00;;;;;31.40;99903.00;;;;5109681;28;20056;-75
2022/01/17 11:44:06;;;;;;;0.00;0.00;;;;;31.10;99918.00;;;;5110072;27;20092;-74
2022/01/17 11:46:46;;;;;;;0.00;0.00;;;;;30.80;99908.00;;;;5111125;28;20063;-76
2022/01/17 11:49:28;;;;;;;0.00;0.00;;;;;30.80;99915.00;;;;5110951;28;20039;-73
2022/01/17 11:51:58;;;;;;;0.00;0.00;;;;;30.70;99905.00;;;;5110064;28;20057;-73
2022/01/17 11:54:29;;;;;;;0.00;0.00;;;;;33.20;99888.00;;;;5109433;28;20510;-73
2022/01/17 11:57:07;;;;;;;0.00;0.00;;;;;31.60;99922.00;;;;5110365;28;20502;-74
2022/01/17 11:59:46;;;;;;;0.00;0.00;;;;;31.40;99902.00;;;;5110017;28;20055;-75
2022/01/17 12:02:28;;;;;;;0.00;0.00;;;;;31.70;99909.00;;;;5109112;28;20048;-74
2022/01/17 12:05:07;;;;;;;0.00;0.00;;;;;31.80;99913.00;;;;5109667;28;20043;-75
2022/01/17 12:07:40;;;;;;;0.00;0.00;;;;;32.10;99908.00;;;;5109752;28;20460;-73
2022/01/17 12:10:14;;;;;;;0.00;0.00;;;;;32.70;99914.00;;;;5109922;28;20074;-75
2022/01/17 12:13:06;;;;;;;0.00;0.00;;;;;33.00;99868.00;;;;5109923;28;20778;-75
2022/01/17 12:15:56;;;;;;;0.00;0.00;;;;;33.20;99911.00;;;;5109984;28;20051;-74
2022/01/17 12:18:31;;;;;;;0.00;0.00;;;;;32.60;99904.00;;;;5108754;28;20055;-74
2022/01/17 12:21:16;;;;;;;0.00;0.00;;;;;32.60;99918.00;;;;5109938;28;20067;-74
2022/01/17 12:23:46;;;;;;;0.00;0.00;;;;;32.20;99922.00;;;;5109060;28;20379;-73
2022/01/17 12:26:53;;;;;;;0.00;0.00;;;;;32.10;99916.00;;;;5109164;27;20048;-77
2022/01/17 12:29:52;;;;;;;0.00;0.00;;;;;32.10;99928.00;;;;5100875;27;20057;-74
2022/01/17 12:32:25;;;;;;;0.00;0.00;;;;;31.90;99947.00;;;;5108738;28;20097;-74
2022/01/17 12:35:08;;;;;;;0.00;0.00;;;;;31.70;99941.00;;;;5109030;28;20043;-75
2022/01/17 12:37:44;;;;;;;4.30;3.35;;;;;31.20;99955.00;;;;5109324;27;20097;-73
2022/01/17 12:40:33;;;;;;;0.00;0.00;;;;;31.10;99940.00;;;;5108343;28;20087;-74
2022/01/17 12:43:12;;;;;;;0.00;0.00;;;;;30.90;99954.00;;;;5109338;28;20436;-75
2022/01/17 12:45:50;;;;;;;0.00;0.00;;;;;30.80;99954.00;;;;5108951;28;20489;-74
2022/01/17 12:48:23;;;;;;;0.00;0.00;;;;;30.80;99932.00;;;;5107517;28;20054;-74
2022/01/17 12:50:54;;;;;;;512.05;39.25;;;;;30.90;99928.00;;;;5108886;28;20126;-73
2022/01/17 12:53:26;;;;;;;0.00;0.00;;;;;31.00;99927.00;;;;5108727;28;20510;-73
2022/01/17 12:56:07;;;;;;;0.00;0.00;;;;;31.40;99941.00;;;;5108828;28;20047;-73
2022/01/17 12:58:39;;;;;;;0.00;0.00;;;;;32.10;99900.00;;;;5108725;28;20049;-74
2022/01/17 13:01:16;;;;;;;0.00;0.00;;;;;32.30;99936.00;;;;5108891;28;20122;-72
2022/01/17 13:03:49;;;;;;;0.00;0.00;;;;;32.20;99935.00;;;;5108844;28;20059;-75
2022/01/17 13:06:20;;;;;;;0.00;0.00;;;;;32.80;99914.00;;;;5107643;28;20466;-75
2022/01/17 13:08:49;;;;;;;;;;;;;33.60;99861.00;;;;5109699;28;20058;-76
2022/01/17 13:11:24;;;;;;;0.00;0.00;;;;;34.60;99874.00;;;;5123947;27;20914;-74